Time;durP1;ratioP1;P1;durP2;ratioP2;P2;SDS_P1;SDS_P2;PMS_P1;PMS_P2;Temp;Humidity;BMP_temperature;BMP_pressure;BME280_temperature;BME280_humidity;BME280_pressure;Samples;Min_cycle;Max_cycle;Signal;HPM_P1;HPM_P2
2023/01/16 00:01:07;;;;;;;8.60;5.20;;;;;;;3.81;63.92;99273.70;110890;1257;22954;-77
2023/01/16 00:03:35;;;;;;;6.20;4.50;;;;;;;3.75;63.95;99276.95;111058;1257;22948;-78
2023/01/16 00:06:03;;;;;;;7.30;4.50;;;;;;;3.73;64.01;99277.53;110811;1257;23657;-78
2023/01/16 00:08:31;;;;;;;8.40;3.80;;;;;;;3.71;64.04;99277.59;111016;1258;21971;-77
2023/01/16 00:10:59;;;;;;;6.00;4.20;;;;;;;3.71;64.05;99273.46;110970;1257;23028;-78
2023/01/16 00:13:27;;;;;;;7.80;4.70;;;;;;;3.72;64.17;99273.79;110625;1258;22175;-78
2023/01/16 00:15:55;;;;;;;7.30;3.30;;;;;;;3.74;64.19;99273.57;110945;1256;21957;-76
2023/01/16 00:18:22;;;;;;;5.40;3.50;;;;;;;3.75;64.16;99275.77;110630;1257;22332;-77
2023/01/16 00:20:50;;;;;;;5.40;3.90;;;;;;;3.73;64.17;99275.64;111221;1258;21989;-77
2023/01/16 00:23:18;;;;;;;6.60;3.80;;;;;;;3.71;64.22;99274.83;110953;1257;21968;-77
2023/01/16 00:25:46;;;;;;;9.60;4.80;;;;;;;3.70;64.21;99269.85;110989;1257;21969;-77
2023/01/16 00:28:14;;;;;;;7.10;4.50;;;;;;;3.70;64.16;99263.67;110292;1263;21967;-77
2023/01/16 00:30:42;;;;;;;6.00;5.00;;;;;;;3.68;64.20;99260.97;110250;1263;21930;-77
2023/01/16 00:33:10;;;;;;;5.40;4.20;;;;;;;3.67;64.27;99261.00;110130;1263;22078;-78
2023/01/16 00:35:38;;;;;;;5.40;4.20;;;;;;;3.63;64.26;99261.78;110809;1263;21969;-77
2023/01/16 00:38:06;;;;;;;10.90;6.30;;;;;;;3.60;64.38;99262.23;110435;1263;23157;-79
2023/01/16 00:40:34;;;;;;;7.30;5.10;;;;;;;3.56;64.41;99265.95;110607;1261;22859;-76
2023/01/16 00:43:02;;;;;;;5.60;4.00;;;;;;;3.52;64.51;99266.90;110667;1262;22532;-77
2023/01/16 00:45:30;;;;;;;7.90;5.10;;;;;;;3.49;64.59;99265.42;110770;1258;22009;-78
2023/01/16 00:47:58;;;;;;;6.30;4.30;;;;;;;3.48;64.63;99267.70;110692;1258;21959;-77
2023/01/16 00:50:26;;;;;;;7.50;4.60;;;;;;;3.47;64.62;99266.54;111036;1257;21995;-80
2023/01/16 00:52:54;;;;;;;7.10;4.80;;;;;;;3.43;64.67;99265.08;110903;1257;21972;-79
2023/01/16 00:55:23;;;;;;;8.60;5.20;;;;;;;3.40;64.88;99268.94;111347;1257;23069;-78
2023/01/16 00:57:51;;;;;;;8.80;5.30;;;;;;;3.40;65.02;99268.42;110681;1257;21980;-78
2023/01/16 01:00:21;;;;;;;8.70;4.80;;;;;;;3.41;65.13;99267.35;110484;1258;21939;-76
2023/01/16 01:02:49;;;;;;;8.90;5.40;;;;;;;3.41;65.12;99267.73;110721;1257;21976;-77
2023/01/16 01:05:18;;;;;;;7.10;5.10;;;;;;;3.37;65.11;99265.21;110976;1257;21974;-77
2023/01/16 01:07:46;;;;;;;8.00;4.80;;;;;;;3.34;65.24;99267.53;110806;1257;21962;-78
2023/01/16 01:10:14;;;;;;;7.70;5.00;;;;;;;3.33;65.30;99265.68;110774;1257;21963;-77
2023/01/16 01:12:41;;;;;;;8.00;5.40;;;;;;;3.33;65.51;99266.02;110900;1258;23595;-76
2023/01/16 01:15:09;;;;;;;7.20;4.50;;;;;;;3.32;65.49;99266.89;110989;1258;23598;-77
2023/01/16 01:17:37;;;;;;;6.60;4.60;;;;;;;3.31;65.54;99266.23;110707;1257;21987;-77
2023/01/16 01:20:06;;;;;;;6.90;4.30;;;;;;;3.31;65.60;99266.40;111056;1257;21967;-77
2023/01/16 01:22:34;;;;;;;7.40;4.90;;;;;;;3.30;65.44;99267.13;110895;1258;21983;-79
2023/01/16 01:25:01;;;;;;;7.50;4.90;;;;;;;3.27;65.52;99260.34;110665;1258;23690;-77
2023/01/16 01:27:29;;;;;;;7.50;4.90;;;;;;;3.21;65.57;99256.89;110763;1258;22747;-77
2023/01/16 01:29:57;;;;;;;6.60;4.60;;;;;;;3.14;65.55;99255.84;110699;1258;22100;-78
2023/01/16 01:32:24;;;;;;;7.50;5.00;;;;;;;3.10;65.70;99257.14;110789;1258;23700;-78
2023/01/16 01:34:52;;;;;;;5.90;4.40;;;;;;;3.09;65.72;99249.43;111098;1256;21993;-78
2023/01/16 01:37:20;;;;;;;7.20;5.50;;;;;;;3.06;65.76;99247.61;111058;1257;23046;-79
2023/01/16 01:39:47;;;;;;;7.70;4.90;;;;;;;3.04;65.83;99246.64;110867;1257;21968;-78
2023/01/16 01:45:22;;;;;;;7.60;4.90;;;;;;;3.03;65.94;99245.27;110826;1257;23052;-78
2023/01/16 01:48:13;;;;;;;6.80;3.90;;;;;;;3.02;66.11;99244.61;110939;1257;21957;-77
2023/01/16 01:51:05;;;;;;;6.80;4.40;;;;;;;2.97;66.07;99245.93;110423;1263;22009;-77
2023/01/16 01:53:43;;;;;;;;;;;;;;;2.92;66.23;99247.94;110531;1263;21992;-79
2023/01/16 01:56:33;;;;;;;4.10;3.30;;;;;;;2.85;66.42;99245.55;110487;1263;22115;-79
2023/01/16 01:59:10;;;;;;;5.30;3.60;;;;;;;2.84;66.52;99238.19;110394;1263;23696;-78
2023/01/16 02:01:39;;;;;;;5.90;3.90;;;;;;;2.85;66.64;99235.06;110478;1263;21995;-78
2023/01/16 02:04:15;;;;;;;6.30;3.50;;;;;;;2.88;66.71;99231.73;110780;1263;22023;-76
2023/01/16 02:06:51;;;;;;;5.80;3.50;;;;;;;2.90;66.72;99230.46;110719;1263;21975;-78
2023/01/16 02:09:21;;;;;;;6.60;4.00;;;;;;;2.92;66.65;99226.29;110448;1264;21970;-77
2023/01/16 02:12:00;;;;;;;6.00;4.50;;;;;;;2.93;66.55;99222.85;110424;1264;21967;-77
2023/01/16 02:14:32;;;;;;;5.50;3.90;;;;;;;2.94;66.63;99220.41;110736;1256;23040;-79
2023/01/16 02:20:23;;;;;;;4.70;3.20;;;;;;;2.97;66.65;99213.48;110014;1269;22024;-78
2023/01/16 02:23:30;;;;;;;4.20;2.90;;;;;;;2.99;66.66;99212.73;109612;1270;23132;-79
2023/01/16 02:27:07;;;;;;;5.30;3.30;;;;;;;2.99;66.63;99203.45;109678;1270;22006;-77
2023/01/16 02:30:11;;;;;;;3.60;2.30;;;;;;;2.97;66.70;99207.27;109289;1263;23084;-78
2023/01/16 02:33:17;;;;;;;6.30;3.40;;;;;;;2.95;66.74;99209.05;109358;1273;21963;-78
2023/01/16 02:35:54;;;;;;;4.60;2.50;;;;;;;2.93;66.66;99209.44;109173;1273;22059;-79
2023/01/16 02:38:52;;;;;;;4.60;2.50;;;;;;;2.91;66.79;99206.38;109397;1273;21966;-79
2023/01/16 02:41:51;;;;;;;4.30;2.70;;;;;;;2.92;66.68;99204.48;109599;1272;23055;-80
2023/01/16 02:44:42;;;;;;;4.70;2.80;;;;;;;2.93;66.50;99206.86;109572;1268;23134;-78
2023/01/16 02:47:22;;;;;;;4.90;2.70;;;;;;;2.92;66.42;99203.79;109633;1272;21985;-80
2023/01/16 02:49:53;;;;;;;4.60;2.70;;;;;;;2.91;66.38;99199.50;109557;1272;21995;-79
2023/01/16 02:52:43;;;;;;;4.70;2.90;;;;;;;2.90;66.37;99199.71;109522;1272;22452;-78
2023/01/16 02:55:13;;;;;;;3.70;2.30;;;;;;;2.89;66.41;99200.42;109610;1272;22109;-78
2023/01/16 02:57:49;;;;;;;4.50;3.00;;;;;;;2.89;66.41;99200.61;109526;1272;21989;-78
2023/01/16 03:00:19;;;;;;;6.10;3.30;;;;;;;2.88;66.37;99200.80;109617;1267;21972;-79
2023/01/16 03:02:47;;;;;;;4.30;2.80;;;;;;;2.87;66.41;99202.02;110070;1267;23028;-79
2023/01/16 03:05:15;;;;;;;4.80;2.50;;;;;;;2.85;66.49;99203.27;110277;1267;24310;-77
2023/01/16 03:08:03;;;;;;;3.60;2.50;;;;;;;2.85;66.40;99205.17;110089;1267;21997;-78
2023/01/16 03:11:04;;;;;;;5.10;2.90;;;;;;;2.79;66.40;99204.80;110093;1267;21983;-77
2023/01/16 03:14:20;;;;;;;5.30;3.20;;;;;;;2.73;66.47;99202.88;110766;1258;22458;-77
2023/01/16 03:16:54;;;;;;;7.50;2.60;;;;;;;2.69;66.65;99199.36;110979;1258;21969;-78
2023/01/16 03:20:10;;;;;;;6.10;3.30;;;;;;;2.70;66.69;99203.11;111167;1258;21972;-75
2023/01/16 03:22:51;;;;;;;7.30;3.20;;;;;;;2.68;66.66;99202.31;111083;1258;21962;-81
2023/01/16 03:25:41;;;;;;;5.50;3.60;;;;;;;2.66;66.84;99197.20;110922;1258;22019;-78
2023/01/16 03:28:28;;;;;;;8.20;4.50;;;;;;;2.66;66.91;99202.36;110892;1258;21978;-77
2023/01/16 03:31:26;;;;;;;5.20;3.20;;;;;;;2.65;67.01;99197.73;110871;1258;22722;-79
2023/01/16 03:34:41;;;;;;;4.80;3.40;;;;;;;2.65;67.04;99197.74;111185;1258;21974;-78
2023/01/16 03:37:25;;;;;;;4.30;3.00;;;;;;;2.64;67.08;99199.31;110969;1258;21981;-79
2023/01/16 03:40:03;;;;;;;4.30;2.80;;;;;;;2.65;67.15;99192.40;110690;1258;21961;-78
2023/01/16 03:42:42;;;;;;;5.20;3.10;;;;;;;2.68;67.06;99187.36;111055;1258;21975;-79
2023/01/16 03:45:21;;;;;;;4.80;2.70;;;;;;;2.69;67.09;99183.71;111148;1257;21989;-79
2023/01/16 03:48:22;;;;;;;4.10;2.60;;;;;;;2.71;67.04;99183.00;111091;1257;24354;-77
2023/01/16 03:50:59;;;;;;;5.90;3.40;;;;;;;2.72;67.12;99183.83;111068;1254;21995;-78
2023/01/16 03:53:36;;;;;;;6.30;3.90;;;;;;;2.75;67.08;99185.13;110841;1258;21960;-78
2023/01/16 03:56:16;;;;;;;5.70;3.90;;;;;;;2.79;67.10;99183.33;110949;1257;21981;-78
2023/01/16 03:58:54;;;;;;;3.90;2.50;;;;;;;2.79;66.99;99182.29;110961;1257;21997;-79
2023/01/16 04:02:20;;;;;;;4.30;3.20;;;;;;;2.78;66.90;99176.13;110864;1258;23700;-78
2023/01/16 04:05:27;;;;;;;9.00;4.90;;;;;;;2.72;66.80;99175.56;109987;1270;23031;-78
2023/01/16 04:08:14;;;;;;;5.80;4.10;;;;;;;2.67;66.85;99172.27;110175;1267;22639;-77
2023/01/16 04:10:46;;;;;;;5.40;3.10;;;;;;;2.64;66.88;99167.52;109009;1269;23035;-76
2023/01/16 04:13:22;;;;;;;5.00;2.80;;;;;;;2.65;66.83;99162.88;109321;1270;21971;-76
2023/01/16 04:15:55;;;;;;;6.50;3.10;;;;;;;2.63;66.95;99165.16;109254;1274;23606;-77
2023/01/16 04:18:34;;;;;;;8.30;2.70;;;;;;;2.61;66.79;99161.42;109215;1273;22245;-77
2023/01/16 04:21:07;;;;;;;3.00;2.40;;;;;;;2.60;66.92;99160.26;109313;1274;21979;-78
2023/01/16 04:23:36;;;;;;;6.90;3.40;;;;;;;2.60;67.00;99156.65;109328;1273;21992;-77
2023/01/16 04:26:04;;;;;;;5.40;3.10;;;;;;;2.60;66.98;99160.92;109197;1274;23737;-77
2023/01/16 04:28:31;;;;;;;5.90;3.80;;;;;;;2.62;66.97;99164.33;109457;1267;23767;-77
2023/01/16 04:30:59;;;;;;;11.50;5.50;;;;;;;2.61;66.94;99161.94;109464;1268;22010;-80
2023/01/16 04:33:27;;;;;;;13.80;7.00;;;;;;;2.59;66.86;99161.83;109980;1266;22026;-78
2023/01/16 04:35:55;;;;;;;13.90;7.00;;;;;;;2.56;66.95;99162.41;109776;1270;22010;-77
2023/01/16 04:38:24;;;;;;;11.50;5.80;;;;;;;2.52;66.91;99156.48;109820;1265;23143;-79
2023/01/16 04:40:55;;;;;;;12.90;7.00;;;;;;;2.51;67.02;99157.55;110338;1260;21965;-81
2023/01/16 04:43:22;;;;;;;12.40;7.40;;;;;;;2.49;67.04;99156.05;110668;1257;23039;-78
2023/01/16 04:45:50;;;;;;;26.20;14.10;;;;;;;2.47;67.07;99154.89;110643;1258;23771;-78
2023/01/16 04:48:18;;;;;;;18.80;11.20;;;;;;;2.45;67.12;99157.52;111047;1254;22957;-80
2023/01/16 04:50:49;;;;;;;23.70;14.90;;;;;;;2.43;67.14;99159.80;111046;1257;22759;-78
2023/01/16 04:53:16;;;;;;;19.00;12.80;;;;;;;2.43;67.19;99155.66;110405;1263;21961;-78
2023/01/16 04:55:44;;;;;;;10.40;8.40;;;;;;;2.43;67.19;99158.42;110563;1262;22027;-79
2023/01/16 04:58:12;;;;;;;9.80;6.30;;;;;;;2.38;67.05;99158.37;110374;1263;23586;-77
2023/01/16 05:00:40;;;;;;;9.80;6.20;;;;;;;2.31;67.05;99160.92;110451;1263;21968;-77
2023/01/16 05:03:07;;;;;;;12.70;8.30;;;;;;;2.24;67.04;99153.52;110544;1261;21973;-78
2023/01/16 05:05:38;;;;;;;8.30;7.50;;;;;;;2.16;67.11;99149.06;110506;1263;21988;-78
2023/01/16 05:08:18;;;;;;;8.80;7.50;;;;;;;2.08;67.17;99147.53;110414;1263;21973;-77
2023/01/16 05:10:46;;;;;;;11.20;7.10;;;;;;;2.02;67.30;99142.88;110565;1258;22101;-78
2023/01/16 05:13:14;;;;;;;7.50;6.20;;;;;;;1.98;67.45;99139.70;110914;1257;24311;-78
2023/01/16 05:15:44;;;;;;;10.40;7.10;;;;;;;1.96;67.59;99138.71;111023;1257;21963;-78
2023/01/16 05:18:13;;;;;;;11.60;6.90;;;;;;;1.94;67.73;99133.59;110695;1257;21971;-78
2023/01/16 05:20:41;;;;;;;8.10;5.80;;;;;;;1.93;67.84;99126.75;110825;1257;22732;-76
2023/01/16 05:23:10;;;;;;;8.30;6.20;;;;;;;1.92;67.89;99125.06;110851;1257;21974;-76
2023/01/16 05:25:38;;;;;;;11.10;9.10;;;;;;;1.92;68.03;99118.20;110984;1257;21966;-77
2023/01/16 05:28:07;;;;;;;12.20;9.90;;;;;;;1.93;68.14;99112.02;110903;1257;23008;-77
2023/01/16 05:30:35;;;;;;;10.50;7.50;;;;;;;1.91;68.20;99107.92;110868;1257;22439;-77
2023/01/16 05:33:04;;;;;;;11.20;8.20;;;;;;;1.90;68.24;99107.62;110893;1257;23014;-78
2023/01/16 05:35:32;;;;;;;11.70;8.50;;;;;;;1.89;68.28;99108.49;110951;1257;23608;-77
2023/01/16 05:38:00;;;;;;;10.60;8.10;;;;;;;1.88;68.24;99103.89;110967;1251;23036;-76
2023/01/16 05:40:28;;;;;;;14.10;10.00;;;;;;;1.88;68.25;99104.58;111146;1257;23686;-77
2023/01/16 05:42:55;;;;;;;15.10;8.60;;;;;;;1.88;68.32;99099.41;110803;1257;21968;-77
2023/01/16 05:45:23;;;;;;;12.30;8.20;;;;;;;1.87;68.36;99097.90;110835;1246;21953;-78
2023/01/16 05:47:51;;;;;;;11.70;8.30;;;;;;;1.86;68.38;99095.69;111042;1257;23018;-79
2023/01/16 05:50:19;;;;;;;15.50;9.60;;;;;;;1.85;68.41;99094.86;110983;1257;24289;-79
2023/01/16 05:52:49;;;;;;;18.10;12.10;;;;;;;1.83;68.48;99093.88;110953;1257;21960;-79
2023/01/16 05:55:17;;;;;;;15.90;13.20;;;;;;;1.80;68.45;99096.34;111047;1257;22451;-79
2023/01/16 05:57:45;;;;;;;17.70;14.30;;;;;;;1.77;68.43;99098.48;110713;1257;22943;-77
2023/01/16 06:00:14;;;;;;;20.10;15.10;;;;;;;1.74;68.58;99091.16;110962;1246;23113;-78
2023/01/16 06:02:42;;;;;;;20.60;16.30;;;;;;;1.73;68.67;99089.13;110819;1257;23026;-78
2023/01/16 06:05:10;;;;;;;21.70;16.70;;;;;;;1.74;68.84;99083.96;110660;1257;21969;-78
2023/01/16 06:07:38;;;;;;;20.80;16.70;;;;;;;1.76;68.92;99081.16;110933;1257;21997;-78
2023/01/16 06:10:07;;;;;;;17.70;15.30;;;;;;;1.75;68.89;99073.82;110842;1257;24306;-78
2023/01/16 06:12:35;;;;;;;21.00;17.30;;;;;;;1.75;68.82;99072.79;110691;1258;21959;-78
2023/01/16 06:15:03;;;;;;;22.10;16.80;;;;;;;1.71;68.72;99073.73;110923;1258;21989;-79
2023/01/16 06:17:31;;;;;;;23.90;17.30;;;;;;;1.63;68.62;99073.73;110451;1264;21982;-77
2023/01/16 06:19:59;;;;;;;26.60;22.60;;;;;;;1.52;68.70;99070.54;110556;1264;22029;-79
2023/01/16 06:22:27;;;;;;;32.00;22.90;;;;;;;1.42;68.86;99063.92;110411;1265;21981;-77
2023/01/16 06:24:54;;;;;;;36.00;22.00;;;;;;;1.31;68.86;99059.83;110102;1265;22172;-77
2023/01/16 06:27:22;;;;;;;33.00;20.30;;;;;;;1.23;69.00;99060.01;110226;1265;23707;-79
2023/01/16 06:29:50;;;;;;;30.70;22.30;;;;;;;1.17;69.35;99063.02;110635;1264;21960;-79
2023/01/16 06:32:19;;;;;;;26.40;16.90;;;;;;;1.13;69.54;99065.51;110637;1264;23699;-79
2023/01/16 06:34:47;;;;;;;23.60;14.60;;;;;;;1.08;69.48;99064.08;110322;1258;21979;-79
2023/01/16 06:37:14;;;;;;;29.00;16.80;;;;;;;1.03;69.64;99061.95;111145;1257;22009;-78
2023/01/16 06:39:42;;;;;;;33.80;17.30;;;;;;;1.01;69.85;99065.77;110913;1257;21989;-80
2023/01/16 06:42:10;;;;;;;29.10;16.40;;;;;;;0.98;69.88;99063.23;111115;1257;22861;-78
2023/01/16 06:44:38;;;;;;;29.10;16.70;;;;;;;0.97;70.05;99059.33;110406;1264;21999;-78
2023/01/16 06:47:06;;;;;;;23.40;13.00;;;;;;;0.97;70.17;99059.84;110429;1260;23079;-78
2023/01/16 06:49:34;;;;;;;25.10;13.30;;;;;;;0.95;70.20;99062.61;110260;1264;21991;-79
2023/01/16 06:52:04;;;;;;;19.30;12.70;;;;;;;0.92;70.39;99061.47;110774;1259;22202;-79
2023/01/16 06:54:32;;;;;;;19.60;13.30;;;;;;;0.89;70.48;99055.88;110798;1263;22310;-78
2023/01/16 06:57:00;;;;;;;18.60;13.60;;;;;;;0.87;70.57;99055.58;110152;1264;22009;-79
2023/01/16 06:59:28;;;;;;;21.00;16.30;;;;;;;0.86;70.67;99057.31;110595;1264;22030;-79
2023/01/16 07:01:55;;;;;;;18.70;15.60;;;;;;;0.85;70.72;99062.46;110374;1257;21982;-78
2023/01/16 07:04:24;;;;;;;19.10;16.10;;;;;;;0.84;70.81;99064.55;110896;1257;23686;-78
2023/01/16 07:06:52;;;;;;;21.70;17.10;;;;;;;0.82;70.96;99064.24;111121;1257;22010;-79
2023/01/16 07:09:28;;;;;;;19.60;16.20;;;;;;;0.79;71.09;99066.01;110997;1255;21965;-76
2023/01/16 07:11:56;;;;;;;25.70;20.40;;;;;;;0.77;71.16;99066.03;111003;1257;23561;-78
2023/01/16 07:22:45;;;;;;;18.00;14.90;;;;;;;0.85;71.65;99050.81;111066;1257;23772;-79
2023/01/16 07:25:26;;;;;;;19.40;14.70;;;;;;;0.90;71.71;99054.48;110947;1257;21946;-78
2023/01/16 07:27:54;;;;;;;20.70;14.70;;;;;;;0.95;71.87;99059.37;111317;1254;21958;-78
2023/01/16 07:30:22;;;;;;;19.50;15.30;;;;;;;1.01;71.86;99058.91;110886;1257;21982;-79
2023/01/16 07:32:50;;;;;;;19.70;15.10;;;;;;;1.05;71.97;99062.08;110938;1257;21958;-79
2023/01/16 07:35:18;;;;;;;22.80;17.80;;;;;;;1.10;71.92;99060.27;111160;1257;21942;-79
2023/01/16 07:37:46;;;;;;;19.90;16.30;;;;;;;1.14;71.95;99057.60;110698;1257;23689;-80
2023/01/16 07:40:14;;;;;;;19.00;13.50;;;;;;;1.20;72.05;99056.46;110798;1257;22045;-80
2023/01/16 07:42:42;;;;;;;22.80;14.60;;;;;;;1.25;72.06;99054.48;111018;1257;24401;-79
2023/01/16 07:45:11;;;;;;;22.40;15.10;;;;;;;1.30;72.03;99048.55;110735;1257;23586;-79
2023/01/16 07:47:39;;;;;;;22.60;17.00;;;;;;;1.37;72.14;99048.23;110852;1257;21976;-79
2023/01/16 07:50:09;;;;;;;23.10;16.80;;;;;;;1.45;72.09;99047.37;110917;1257;21967;-79
2023/01/16 07:52:37;;;;;;;27.90;17.10;;;;;;;1.50;71.98;99041.10;110820;1257;22745;-79
2023/01/16 07:55:06;;;;;;;28.70;18.60;;;;;;;1.54;71.89;99037.58;110841;1257;24293;-79
2023/01/16 07:57:37;;;;;;;25.90;18.10;;;;;;;1.60;72.05;99036.08;111104;1247;21971;-80
2023/01/16 08:00:10;;;;;;;28.60;17.30;;;;;;;1.65;71.92;99038.20;110804;1258;23619;-79
2023/01/16 08:02:41;;;;;;;29.90;18.90;;;;;;;1.67;71.88;99035.58;110832;1257;23703;-80
2023/01/16 08:05:10;;;;;;;33.70;17.60;;;;;;;1.70;71.69;99034.65;110953;1258;21973;-79
2023/01/16 08:07:38;;;;;;;27.40;17.50;;;;;;;1.73;71.67;99032.36;110123;1265;21993;-79
2023/01/16 08:10:07;;;;;;;29.60;17.10;;;;;;;1.78;71.78;99030.86;110609;1265;23034;-79
2023/01/16 08:12:38;;;;;;;22.50;14.40;;;;;;;1.85;71.82;99032.25;110398;1265;23820;-80
2023/01/16 08:15:07;;;;;;;22.90;14.70;;;;;;;1.92;71.73;99027.12;110394;1265;22023;-79
2023/01/16 08:17:40;;;;;;;22.70;14.20;;;;;;;1.97;71.49;99021.52;110114;1265;23066;-79
2023/01/16 08:20:09;;;;;;;22.10;14.50;;;;;;;2.03;71.58;99016.05;110094;1265;23045;-79
2023/01/16 08:22:50;;;;;;;19.30;14.00;;;;;;;2.09;71.47;99019.30;110697;1258;23605;-80
2023/01/16 08:25:24;;;;;;;22.00;14.90;;;;;;;2.14;71.41;99015.94;110428;1259;23820;-78
2023/01/16 08:27:52;;;;;;;23.50;14.20;;;;;;;2.20;71.50;99010.82;110910;1257;21930;-79
2023/01/16 08:30:20;;;;;;;24.10;15.00;;;;;;;2.26;71.21;99004.48;110918;1257;22226;-81
2023/01/16 08:32:47;;;;;;;21.70;14.20;;;;;;;2.32;71.11;98998.48;111012;1257;21966;-79
2023/01/16 08:35:15;;;;;;;20.50;14.50;;;;;;;2.37;71.10;98990.14;111072;1257;22665;-79
2023/01/16 08:37:49;;;;;;;22.90;15.30;;;;;;;2.41;70.97;98991.21;110987;1250;21985;-80
2023/01/16 08:40:19;;;;;;;22.10;15.40;;;;;;;2.47;70.87;98990.20;111081;1257;22466;-84
2023/01/16 08:51:23;;;;;;;21.60;16.00;;;;;;;2.68;70.42;98983.63;109896;1269;21996;-84
2023/01/16 08:53:54;;;;;;;24.60;16.40;;;;;;;2.73;70.27;98982.45;110275;1269;23705;-84
2023/01/16 08:56:23;;;;;;;21.50;15.40;;;;;;;2.78;70.12;98980.61;109771;1269;22769;-82
2023/01/16 08:58:50;;;;;;;21.70;15.20;;;;;;;2.81;69.97;98975.37;109997;1269;21989;-83
2023/01/16 09:01:19;;;;;;;22.50;14.80;;;;;;;2.84;69.82;98969.78;110240;1265;23031;-81
2023/01/16 09:03:46;;;;;;;24.60;16.80;;;;;;;2.86;69.77;98966.45;110621;1265;23702;-81
2023/01/16 09:06:14;;;;;;;22.80;15.40;;;;;;;2.89;69.59;98966.22;110719;1257;23042;-82
2023/01/16 09:08:42;;;;;;;28.40;18.20;;;;;;;2.91;69.54;98966.84;111221;1257;21987;-82
2023/01/16 09:14:00;;;;;;;27.40;18.00;;;;;;;2.95;69.41;98959.66;111197;1257;21979;-82
2023/01/16 09:16:27;;;;;;;26.10;17.10;;;;;;;2.99;69.31;98950.29;111047;1257;23654;-82
2023/01/16 09:18:55;;;;;;;31.40;19.80;;;;;;;3.07;69.44;98951.27;110999;1257;22117;-84
2023/01/16 09:21:24;;;;;;;28.40;18.90;;;;;;;3.15;69.17;98955.66;111190;1257;22019;-82
2023/01/16 09:23:52;;;;;;;28.40;17.60;;;;;;;3.23;69.01;98954.39;111186;1257;21930;-82
2023/01/16 09:26:20;;;;;;;31.30;19.00;;;;;;;3.33;68.98;98948.07;111221;1247;22426;-82
2023/01/16 09:28:48;;;;;;;24.10;16.30;;;;;;;3.48;69.10;98950.19;111151;1257;22254;-82
2023/01/16 09:31:16;;;;;;;27.40;18.30;;;;;;;3.60;68.79;98948.23;111257;1257;22026;-83
2023/01/16 09:33:44;;;;;;;26.10;16.10;;;;;;;3.72;68.38;98939.45;111045;1257;22192;-82
2023/01/16 09:36:13;;;;;;;32.60;19.70;;;;;;;3.80;67.94;98936.09;110790;1257;21974;-83
2023/01/16 09:38:41;;;;;;;25.50;16.60;;;;;;;3.91;68.11;98929.90;111192;1257;21980;-81
2023/01/16 09:44:07;;;;;;;29.00;18.60;;;;;;;4.20;67.73;98921.48;110934;1257;24283;-76
2023/01/16 09:46:42;;;;;;;31.10;16.60;;;;;;;4.35;67.47;98914.77;110859;1257;22048;-79
2023/01/16 09:49:28;;;;;;;29.10;16.90;;;;;;;4.51;67.17;98914.20;109690;1256;1604990;-78
2023/01/16 10:00:39;;;;;;;29.20;15.50;;;;;;;5.09;64.53;98886.02;110844;1258;22313;-77
2023/01/16 10:03:08;;;;;;;28.40;17.00;;;;;;;5.19;64.56;98880.45;110365;1260;22030;-79
2023/01/16 10:05:57;;;;;;;26.10;14.90;;;;;;;5.31;64.16;98870.52;110419;1264;23062;-83
2023/01/16 10:08:44;;;;;;;30.60;19.60;;;;;;;5.35;63.67;98862.27;110780;1264;22443;-84
2023/01/16 10:11:32;;;;;;;32.90;19.00;;;;;;;5.39;63.14;98859.13;110675;1264;22821;-83
2023/01/16 10:14:12;;;;;;;33.50;20.20;;;;;;;5.48;63.25;98859.65;110323;1264;22865;-82
2023/01/16 10:16:49;;;;;;;30.40;18.80;;;;;;;5.62;63.14;98852.48;110869;1263;21993;-84
2023/01/16 10:19:40;;;;;;;26.00;16.30;;;;;;;5.78;62.66;98845.97;110609;1264;21982;-82
2023/01/16 10:22:53;;;;;;;32.80;17.00;;;;;;;5.88;62.10;98839.86;111089;1257;21993;-82
2023/01/16 10:25:46;;;;;;;38.40;17.30;;;;;;;5.95;61.72;98827.33;111154;1252;23101;-82
2023/01/16 10:28:43;;;;;;;34.20;17.80;;;;;;;6.05;61.18;98820.36;110790;1264;24306;-80
2023/01/16 10:31:46;;;;;;;21.90;12.40;;;;;;;6.15;60.81;98813.48;110608;1264;21967;-82
2023/01/16 10:34:22;;;;;;;19.60;13.60;;;;;;;6.27;60.47;98803.31;110573;1263;22434;-82
2023/01/16 10:36:57;;;;;;;25.60;13.20;;;;;;;6.40;60.32;98800.14;110494;1262;22759;-79
2023/01/16 10:39:37;;;;;;;17.20;11.90;;;;;;;6.49;59.43;98798.52;110940;1262;22684;-84
2023/01/16 10:51:01;;;;;;;36.70;21.80;;;;;;;7.13;58.89;98783.04;110759;1257;21958;-81
2023/01/16 10:53:32;;;;;;;24.30;14.60;;;;;;;7.29;57.61;98776.56;110961;1257;22029;-81
2023/01/16 10:56:01;;;;;;;27.00;15.10;;;;;;;7.39;57.38;98770.85;110112;1265;22126;-81
2023/01/16 10:58:32;;;;;;;32.70;22.40;;;;;;;7.56;57.13;98767.77;110153;1264;21943;-81
2023/01/16 11:01:20;;;;;;;28.90;18.40;;;;;;;7.78;56.61;98761.27;110094;1265;22036;-80
2023/01/16 11:03:51;;;;;;;36.20;20.60;;;;;;;8.16;56.34;98754.43;110312;1265;22128;-81
2023/01/16 11:06:26;;;;;;;33.00;19.30;;;;;;;8.74;55.88;98749.42;110378;1265;21965;-81
2023/01/16 11:09:16;;;;;;;25.10;17.60;;;;;;;9.59;56.91;98740.21;110599;1265;22162;-81
2023/01/16 11:20:34;;;;;;;24.80;15.50;;;;;;;11.58;49.70;98703.98;110324;1263;22513;-81
2023/01/16 11:23:21;;;;;;;20.50;14.80;;;;;;;11.41;48.02;98694.30;110875;1262;22008;-80
2023/01/16 11:25:53;;;;;;;22.80;16.70;;;;;;;10.74;46.98;98690.04;110560;1264;21982;-81
2023/01/16 11:28:28;;;;;;;21.70;14.60;;;;;;;10.13;47.45;98680.48;110473;1261;24207;-78
2023/01/16 11:31:07;;;;;;;25.40;15.60;;;;;;;9.77;48.32;98673.13;110678;1258;21968;-81
2023/01/16 11:33:44;;;;;;;21.20;14.90;;;;;;;9.62;48.88;98670.40;110808;1258;21960;-79
2023/01/16 11:36:16;;;;;;;19.30;13.00;;;;;;;9.45;49.23;98666.36;111189;1257;21955;-79
2023/01/16 11:38:47;;;;;;;24.90;13.20;;;;;;;9.33;49.32;98660.70;111154;1244;23081;-80
2023/01/16 11:41:26;;;;;;;16.60;11.30;;;;;;;9.16;49.66;98657.33;111093;1257;23601;-82
2023/01/16 11:47:27;;;;;;;21.80;14.10;;;;;;;8.45;49.58;98649.91;111048;1257;21963;-80
2023/01/16 11:49:55;;;;;;;16.10;11.30;;;;;;;7.89;49.87;98642.95;110919;1257;21960;-80
2023/01/16 11:52:29;;;;;;;15.80;10.20;;;;;;;7.50;50.64;98631.64;110905;1257;22114;-79
2023/01/16 11:55:04;;;;;;;13.30;10.60;;;;;;;7.15;51.56;98623.14;111103;1257;21982;-80
2023/01/16 11:57:50;;;;;;;14.20;10.30;;;;;;;6.80;52.43;98621.75;110963;1257;23130;-81
2023/01/16 12:00:57;;;;;;;17.40;10.80;;;;;;;6.51;53.37;98620.77;111072;1257;23021;-79
2023/01/16 12:03:49;;;;;;;15.00;10.20;;;;;;;6.24;54.13;98619.13;111106;1258;21968;-83
2023/01/16 12:06:34;;;;;;;;;;;;;;;6.03;54.85;98610.11;111500;1259;21996;-78
2023/01/16 12:09:35;;;;;;;11.00;8.10;;;;;;;5.85;55.65;98605.73;111136;1257;22008;-80
2023/01/16 12:15:03;;;;;;;10.90;7.00;;;;;;;5.80;56.23;98593.86;110904;1258;21960;-80
2023/01/16 12:18:18;;;;;;;10.50;7.60;;;;;;;5.79;56.39;98592.53;110825;1258;22000;-80
2023/01/16 12:21:03;;;;;;;13.00;7.40;;;;;;;5.78;56.50;98588.09;111094;1257;21947;-81
2023/01/16 12:24:05;;;;;;;8.90;6.70;;;;;;;5.76;56.65;98582.11;111332;1258;23700;-81
2023/01/16 12:26:45;;;;;;;10.00;6.80;;;;;;;5.76;56.72;98576.98;111397;1258;21986;-80
2023/01/16 12:29:38;;;;;;;11.80;7.70;;;;;;;5.77;56.86;98569.84;111138;1258;22829;-81
2023/01/16 12:32:17;;;;;;;;;;;;;;;5.79;56.81;98563.54;111182;1258;21961;-81
2023/01/16 12:35:26;;;;;;;12.80;8.30;;;;;;;5.73;57.04;98562.77;111201;1258;23033;-81
2023/01/16 12:38:19;;;;;;;19.40;12.60;;;;;;;5.72;57.25;98553.49;111007;1257;21981;-81
2023/01/16 12:44:46;;;;;;;19.10;12.90;;;;;;;5.65;57.55;98551.40;110952;1257;21981;-78
2023/01/16 12:47:30;;;;;;;16.50;11.90;;;;;;;5.67;57.90;98543.56;110818;1258;21985;-78
2023/01/16 12:50:37;;;;;;;23.50;14.20;;;;;;;5.70;58.10;98537.05;111277;1257;21971;-80
2023/01/16 12:53:15;;;;;;;20.20;13.00;;;;;;;5.71;58.30;98532.68;111019;1253;22004;-79
2023/01/16 12:56:13;;;;;;;21.60;13.00;;;;;;;5.71;58.37;98526.80;111235;1257;22931;-81
2023/01/16 12:58:49;;;;;;;17.60;11.10;;;;;;;5.66;58.35;98527.02;110751;1263;23622;-82
2023/01/16 13:01:25;;;;;;;16.40;13.00;;;;;;;5.61;58.41;98522.95;110559;1263;23026;-81
2023/01/16 13:04:02;;;;;;;20.10;14.50;;;;;;;5.57;58.64;98514.48;110111;1268;22393;-81
2023/01/16 13:07:06;;;;;;;19.40;14.20;;;;;;;5.56;58.68;98509.75;109858;1268;22086;-82